createdAt,value
2022-07-27T00:00:53.753Z,57.96
2022-07-27T00:03:20.786Z,57.85
2022-07-27T00:05:47.831Z,57.99
2022-07-27T00:08:14.878Z,57.88
2022-07-27T00:10:41.916Z,58.10
2022-07-27T00:13:08.931Z,58.15
2022-07-27T00:15:36.029Z,57.96
2022-07-27T00:18:04.017Z,58.19
2022-07-27T00:20:31.903Z,58.71
2022-07-27T00:22:59.109Z,57.95
2022-07-27T00:25:29.122Z,58.56
2022-07-27T00:27:57.315Z,58.38
2022-07-27T00:30:24.751Z,58.59
2022-07-27T00:32:52.196Z,58.81
2022-07-27T00:35:19.541Z,58.32
2022-07-27T00:37:46.660Z,58.63
2022-07-27T00:40:13.691Z,58.52
2022-07-27T00:42:40.728Z,58.85
2022-07-27T00:45:08.353Z,58.70
2022-07-27T00:47:35.362Z,59.07
2022-07-27T00:50:02.518Z,58.92
2022-07-27T00:52:29.548Z,58.58
2022-07-27T00:54:56.569Z,58.99
2022-07-27T00:57:23.749Z,59.08
2022-07-27T00:59:50.741Z,59.11
2022-07-27T01:02:19.394Z,59.17
2022-07-27T01:04:47.526Z,59.23
2022-07-27T01:07:15.110Z,58.77
2022-07-27T01:09:57.121Z,58.89
2022-07-27T01:12:31.641Z,58.90
2022-07-27T01:14:59.183Z,59.37
2022-07-27T01:17:27.010Z,59.36
2022-07-27T01:19:54.097Z,59.38
2022-07-27T01:22:21.178Z,59.44
2022-07-27T01:24:49.099Z,59.26
2022-07-27T01:27:16.201Z,59.38
2022-07-27T01:29:43.452Z,59.54
2022-07-27T01:32:10.706Z,59.65
2022-07-27T01:34:37.693Z,59.52
2022-07-27T01:37:05.111Z,59.54
2022-07-27T01:39:32.288Z,59.79
2022-07-27T01:41:59.383Z,59.84
2022-07-27T01:44:26.635Z,59.74
2022-07-27T01:46:53.795Z,59.80
2022-07-27T01:49:20.968Z,60.07
2022-07-27T01:51:48.194Z,59.69
2022-07-27T01:54:15.489Z,59.82
2022-07-27T01:56:42.590Z,59.93
2022-07-27T01:59:16.732Z,60.08
2022-07-27T02:01:44.978Z,59.95
2022-07-27T02:04:12.327Z,59.74
2022-07-27T02:06:39.704Z,60.02
2022-07-27T02:09:06.941Z,60.30
2022-07-27T02:11:52.329Z,59.90
2022-07-27T02:14:21.387Z,60.17
2022-07-27T02:16:50.714Z,60.27
2022-07-27T02:19:18.354Z,60.33
2022-07-27T02:21:45.584Z,60.35
2022-07-27T02:24:12.716Z,60.49
2022-07-27T02:26:39.990Z,60.64
2022-07-27T02:29:07.044Z,60.64
2022-07-27T02:31:34.129Z,60.60
2022-07-27T02:34:01.353Z,60.52
2022-07-27T02:36:31.122Z,60.64
2022-07-27T02:38:58.330Z,60.59
2022-07-27T02:41:25.343Z,60.39
2022-07-27T02:43:52.434Z,60.57
2022-07-27T02:46:19.567Z,60.52
2022-07-27T02:48:46.916Z,60.67
2022-07-27T02:51:15.353Z,61.08
2022-07-27T02:53:42.544Z,61.18
2022-07-27T02:56:09.650Z,61.21
2022-07-27T02:58:37.683Z,61.15
2022-07-27T03:01:05.673Z,61.61
2022-07-27T03:03:36.109Z,61.49
2022-07-27T03:06:06.936Z,61.53
2022-07-27T03:08:34.693Z,61.56
2022-07-27T03:11:01.668Z,61.42
2022-07-27T03:13:29.249Z,61.53
2022-07-27T03:15:56.739Z,61.16
2022-07-27T03:18:24.021Z,61.65
2022-07-27T03:20:50.992Z,61.55
2022-07-27T03:23:18.679Z,61.45
2022-07-27T03:25:45.684Z,61.53
2022-07-27T03:28:12.728Z,61.57
2022-07-27T03:30:39.867Z,61.39
2022-07-27T03:33:07.012Z,61.26
2022-07-27T03:35:34.160Z,61.80
2022-07-27T03:38:01.404Z,61.38
2022-07-27T03:40:33.032Z,61.81
2022-07-27T03:43:00.606Z,61.27
2022-07-27T03:45:27.718Z,61.69
2022-07-27T03:47:54.954Z,61.75
2022-07-27T03:50:22.681Z,61.81
2022-07-27T03:52:50.173Z,61.80
2022-07-27T03:55:17.166Z,62.03
2022-07-27T03:57:44.227Z,61.66
2022-07-27T04:00:12.854Z,61.72
2022-07-27T04:02:40.782Z,61.93
2022-07-27T04:05:08.602Z,61.91
2022-07-27T04:07:35.836Z,62.00
2022-07-27T04:10:03.059Z,61.66
2022-07-27T04:12:30.954Z,61.98
2022-07-27T04:14:58.865Z,61.79
2022-07-27T04:17:56.119Z,62.06
2022-07-27T04:20:13.211Z,61.92
2022-07-27T04:22:41.794Z,62.01
2022-07-27T04:25:09.335Z,62.01
2022-07-27T04:27:36.428Z,62.13
2022-07-27T04:30:09.215Z,62.25
2022-07-27T04:32:36.896Z,62.12
2022-07-27T04:35:04.132Z,62.00
2022-07-27T04:37:32.531Z,62.33
2022-07-27T04:39:59.783Z,62.21
2022-07-27T04:42:26.882Z,62.49
2022-07-27T04:44:53.911Z,62.07
2022-07-27T04:47:21.037Z,62.36
2022-07-27T04:49:48.097Z,62.13
2022-07-27T04:52:16.215Z,62.05
2022-07-27T04:54:43.441Z,62.09
2022-07-27T04:57:10.568Z,62.02
2022-07-27T04:59:37.735Z,61.76
2022-07-27T05:02:04.872Z,62.09
2022-07-27T05:04:31.976Z,62.07
2022-07-27T05:06:59.122Z,62.01
2022-07-27T05:09:26.201Z,62.13
2022-07-27T05:11:53.387Z,62.32
2022-07-27T05:14:21.478Z,62.17
2022-07-27T05:16:49.723Z,62.14
2022-07-27T05:19:16.990Z,62.19
2022-07-27T05:21:44.152Z,62.53
2022-07-27T05:24:11.229Z,62.37
2022-07-27T05:26:38.434Z,62.41
2022-07-27T05:29:05.452Z,62.23
2022-07-27T05:31:32.706Z,62.10
2022-07-27T05:33:59.797Z,62.43
2022-07-27T05:36:27.881Z,62.35
2022-07-27T05:38:55.459Z,62.08
2022-07-27T05:41:26.262Z,62.11
2022-07-27T05:43:54.708Z,61.88
2022-07-27T05:46:22.405Z,62.14
2022-07-27T05:48:49.888Z,62.07
2022-07-27T05:52:02.202Z,61.82
2022-07-27T05:54:46.705Z,61.98
2022-07-27T05:57:25.027Z,61.80
2022-07-27T06:00:06.142Z,61.64
2022-07-27T06:02:38.977Z,62.24
2022-07-27T06:05:15.860Z,61.86
2022-07-27T06:08:00.152Z,62.04
2022-07-27T06:10:33.365Z,61.95
2022-07-27T06:13:05.862Z,62.06
2022-07-27T06:15:42.268Z,62.11
2022-07-27T06:18:17.054Z,61.96
2022-07-27T06:20:53.397Z,62.34
2022-07-27T06:23:22.892Z,62.16
2022-07-27T06:25:50.533Z,62.38
2022-07-27T06:28:20.148Z,62.41
2022-07-27T06:30:48.026Z,62.45
2022-07-27T06:33:15.479Z,62.42
2022-07-27T06:35:46.406Z,62.63
2022-07-27T06:38:14.817Z,62.13
2022-07-27T06:40:46.236Z,62.66
2022-07-27T06:43:19.341Z,62.23
2022-07-27T06:45:48.583Z,62.03
2022-07-27T06:48:17.355Z,62.51
2022-07-27T06:50:47.158Z,62.11
2022-07-27T06:53:18.995Z,61.71
2022-07-27T06:55:52.306Z,62.02
2022-07-27T06:58:20.314Z,61.70
2022-07-27T07:00:54.915Z,61.77
2022-07-27T07:03:22.079Z,61.36
2022-07-27T07:05:49.203Z,61.62
2022-07-27T07:08:16.440Z,61.59
2022-07-27T07:10:45.155Z,61.45
2022-07-27T07:13:12.264Z,61.27
2022-07-27T07:15:40.698Z,60.91
2022-07-27T07:18:07.979Z,61.30
2022-07-27T07:20:35.744Z,61.37
2022-07-27T07:23:03.987Z,61.16
2022-07-27T07:25:31.419Z,60.87
2022-07-27T07:27:58.711Z,61.03
2022-07-27T07:30:28.444Z,60.93
2022-07-27T07:33:03.125Z,60.82
2022-07-27T07:36:12.376Z,60.56
2022-07-27T07:39:57.518Z,60.50
2022-07-27T07:43:03.433Z,60.54
2022-07-27T07:45:35.578Z,60.42
2022-07-27T07:49:04.755Z,60.22
2022-07-27T07:52:08.664Z,60.11
2022-07-27T07:54:38.201Z,60.25
2022-07-27T07:57:42.676Z,59.90
2022-07-27T08:00:20.193Z,60.02
2022-07-27T08:02:48.679Z,59.55
2022-07-27T08:05:16.076Z,59.86
2022-07-27T08:07:43.657Z,60.05
2022-07-27T08:10:12.042Z,59.66
2022-07-27T08:12:40.681Z,59.35
2022-07-27T08:15:08.416Z,59.46
2022-07-27T08:17:35.413Z,59.05
2022-07-27T08:20:02.642Z,58.77
2022-07-27T08:22:29.564Z,58.17
2022-07-27T08:24:56.678Z,58.06
2022-07-27T08:27:23.731Z,58.41
2022-07-27T08:29:52.005Z,58.07
2022-07-27T08:32:19.408Z,58.31
2022-07-27T08:34:46.761Z,58.16
2022-07-27T08:37:19.127Z,58.13
2022-07-27T08:40:39.063Z,57.65
2022-07-27T08:44:05.560Z,57.71
2022-07-27T08:46:54.261Z,57.77
2022-07-27T08:49:55.875Z,57.55
2022-07-27T08:53:52.225Z,57.28
2022-07-27T08:56:52.955Z,57.37
2022-07-27T08:59:43.758Z,57.06
2022-07-27T09:20:24.942Z,56.50
2022-07-27T09:30:14.839Z,55.34
2022-07-27T09:37:16.839Z,53.98
2022-07-27T09:43:06.617Z,53.23
2022-07-27T09:46:19.459Z,53.32
2022-07-27T09:50:10.392Z,53.38
2022-07-27T09:53:19.682Z,52.46
2022-07-27T10:00:44.503Z,52.31
2022-07-27T10:16:58.212Z,49.60
2022-07-27T10:19:35.056Z,49.55
2022-07-27T10:22:09.361Z,49.27
2022-07-27T13:07:50.778Z,40.11
2022-07-27T13:10:41.079Z,39.99
2022-07-27T13:13:33.799Z,40.04
2022-07-27T13:45:05.572Z,41.86
2022-07-27T13:47:35.009Z,42.13
2022-07-27T14:07:28.251Z,41.35
2022-07-27T14:45:20.532Z,42.21
2022-07-27T14:47:48.555Z,42.40
2022-07-27T14:50:15.935Z,42.51
2022-07-27T14:52:46.486Z,42.70
2022-07-27T14:55:15.318Z,42.67
2022-07-27T14:58:14.526Z,42.56
2022-07-27T15:00:47.184Z,42.98
2022-07-27T15:24:11.590Z,43.35
2022-07-27T15:34:05.859Z,43.30
2022-07-27T15:44:00.547Z,43.75
2022-07-27T15:46:29.305Z,43.83
2022-07-27T15:48:59.684Z,43.80
2022-07-27T15:51:26.981Z,44.33
2022-07-27T15:54:11.157Z,44.39
2022-07-27T15:56:48.948Z,44.75
2022-07-27T15:59:25.656Z,43.93
2022-07-27T16:01:56.079Z,43.90
2022-07-27T16:04:27.523Z,43.91
2022-07-27T16:07:07.161Z,44.52
2022-07-27T16:09:49.060Z,44.39
2022-07-27T16:12:33.764Z,44.69
2022-07-27T16:15:24.527Z,44.91
2022-07-27T16:17:56.743Z,44.96
2022-07-27T16:30:34.026Z,46.54
2022-07-27T16:46:58.622Z,47.08
2022-07-27T16:52:47.852Z,47.47
2022-07-27T16:55:19.643Z,47.11
2022-07-27T16:57:49.772Z,47.07
2022-07-27T17:00:18.368Z,46.88
2022-07-27T17:02:47.668Z,46.77
2022-07-27T17:05:19.606Z,47.18
2022-07-27T17:07:52.573Z,47.04
2022-07-27T17:10:27.219Z,47.12
2022-07-27T17:13:13.479Z,47.01
2022-07-27T17:15:41.116Z,46.81
2022-07-27T17:18:11.470Z,47.33
2022-07-27T17:20:46.139Z,47.03
2022-07-27T17:23:41.369Z,47.14
2022-07-27T17:26:31.726Z,47.49
2022-07-27T17:29:02.552Z,47.38
2022-07-27T17:31:37.158Z,47.36
2022-07-27T17:34:08.584Z,47.67
2022-07-27T17:36:42.325Z,47.35
2022-07-27T17:40:35.290Z,46.82
2022-07-27T17:42:25.840Z,46.90
2022-07-27T17:44:55.591Z,46.80
2022-07-27T17:47:23.032Z,46.36
2022-07-27T17:49:53.384Z,46.38
2022-07-27T17:53:06.844Z,46.14
2022-07-27T17:55:41.483Z,46.15
2022-07-27T17:58:13.578Z,46.10
2022-07-27T18:00:46.313Z,46.41
2022-07-27T18:03:28.917Z,46.02
2022-07-27T18:06:35.151Z,46.89
2022-07-27T18:16:42.060Z,47.84
2022-07-27T18:19:09.510Z,47.67
2022-07-27T18:21:36.749Z,49.35
2022-07-27T18:24:04.427Z,49.23
2022-07-27T18:26:31.685Z,49.70
2022-07-27T18:28:58.695Z,50.67
2022-07-27T18:31:25.972Z,51.07
2022-07-27T18:33:54.601Z,50.61
2022-07-27T18:36:21.848Z,50.32
2022-07-27T18:38:57.964Z,50.19
2022-07-27T18:41:40.256Z,50.18
2022-07-27T18:57:24.933Z,50.54
2022-07-27T18:59:53.730Z,50.81
2022-07-27T19:02:21.003Z,51.28
2022-07-27T19:04:58.133Z,51.68
2022-07-27T19:07:37.492Z,51.34
2022-07-27T19:10:17.320Z,52.21
2022-07-27T19:12:47.589Z,52.13
2022-07-27T19:15:25.245Z,51.92
2022-07-27T19:20:46.180Z,52.09
2022-07-27T19:23:15.504Z,52.58
2022-07-27T19:25:43.723Z,52.75
2022-07-27T19:28:11.356Z,52.80
2022-07-27T19:30:42.044Z,52.58
2022-07-27T19:33:12.900Z,52.71
2022-07-27T19:35:40.156Z,52.81
2022-07-27T19:38:17.141Z,53.10
2022-07-27T19:40:50.155Z,52.72
2022-07-27T19:43:25.412Z,53.28
2022-07-27T19:45:55.345Z,53.34
2022-07-27T19:48:35.130Z,53.37
2022-07-27T19:51:12.961Z,53.29
2022-07-27T19:54:22.230Z,53.46
2022-07-27T20:00:31.796Z,53.99
2022-07-27T20:06:56.712Z,54.09
2022-07-27T20:09:39.404Z,53.91
2022-07-27T20:12:10.077Z,54.31
2022-07-27T20:14:38.027Z,54.44
2022-07-27T20:17:06.312Z,54.04
2022-07-27T20:19:33.773Z,54.73
2022-07-27T20:22:01.286Z,54.58
2022-07-27T20:24:28.741Z,54.25
2022-07-27T20:26:56.869Z,54.58
2022-07-27T20:29:24.342Z,54.68
2022-07-27T20:31:55.315Z,54.86
2022-07-27T20:34:23.645Z,54.70
2022-07-27T20:36:54.181Z,54.67
2022-07-27T20:39:21.651Z,54.83
2022-07-27T20:41:49.058Z,54.90
2022-07-27T20:44:16.142Z,54.92
2022-07-27T20:46:43.647Z,55.25
2022-07-27T20:49:11.150Z,55.02
2022-07-27T20:51:43.903Z,55.08
2022-07-27T20:54:11.130Z,55.57
2022-07-27T20:56:38.220Z,55.11
2022-07-27T20:59:07.571Z,55.31
2022-07-27T21:01:43.701Z,55.30
2022-07-27T21:04:10.926Z,55.52
2022-07-27T21:06:38.134Z,55.43
2022-07-27T21:09:05.264Z,55.72
2022-07-27T21:11:32.683Z,55.75
2022-07-27T21:13:59.751Z,55.56
2022-07-27T21:16:27.095Z,55.76
2022-07-27T21:18:54.251Z,55.80
2022-07-27T21:21:25.574Z,55.62
2022-07-27T21:24:13.323Z,57.04
2022-07-27T21:26:43.622Z,55.87
2022-07-27T21:29:11.727Z,55.72
2022-07-27T21:31:39.392Z,55.69
2022-07-27T21:34:07.337Z,56.23
2022-07-27T21:36:34.852Z,56.22
2022-07-27T21:39:02.054Z,55.92
2022-07-27T21:41:29.172Z,55.72
2022-07-27T21:43:56.360Z,56.14
2022-07-27T21:46:24.068Z,56.47
2022-07-27T21:57:10.101Z,56.59
2022-07-27T21:59:37.300Z,56.80
2022-07-27T22:02:04.373Z,56.78
2022-07-27T22:04:31.588Z,56.83
2022-07-27T22:06:58.689Z,56.97
2022-07-27T22:09:25.791Z,56.86
2022-07-27T22:11:52.893Z,57.15
2022-07-27T22:14:23.515Z,57.09
2022-07-27T22:16:50.704Z,57.62
2022-07-27T22:19:18.100Z,57.32
2022-07-27T22:21:45.213Z,57.64
2022-07-27T22:24:12.550Z,57.08
2022-07-27T22:26:40.232Z,57.14
2022-07-27T22:29:07.413Z,57.56
2022-07-27T22:31:34.491Z,57.46
2022-07-27T22:34:01.710Z,57.06
2022-07-27T22:36:28.720Z,57.38
2022-07-27T22:38:56.093Z,57.42
2022-07-27T22:41:23.364Z,57.33
2022-07-27T22:43:50.558Z,57.30
2022-07-27T22:46:19.900Z,57.81
2022-07-27T22:48:50.913Z,57.57
2022-07-27T22:51:18.023Z,57.76
2022-07-27T22:53:45.150Z,57.75
2022-07-27T22:56:12.328Z,58.23
2022-07-27T22:58:39.453Z,57.92
2022-07-27T23:01:06.557Z,58.11
2022-07-27T23:03:53.725Z,58.06
2022-07-27T23:06:21.090Z,58.13
2022-07-27T23:08:49.923Z,57.93
2022-07-27T23:11:19.353Z,58.03
2022-07-27T23:13:47.534Z,58.10
2022-07-27T23:16:14.963Z,58.45
2022-07-27T23:18:42.219Z,58.11
2022-07-27T23:21:09.456Z,58.27
2022-07-27T23:23:41.032Z,58.28
2022-07-27T23:26:25.865Z,58.69
2022-07-27T23:28:54.080Z,58.32
2022-07-27T23:31:22.007Z,58.61
2022-07-27T23:33:49.396Z,58.60
2022-07-27T23:36:16.806Z,58.53
2022-07-27T23:38:43.972Z,58.96
2022-07-27T23:41:10.998Z,59.02
2022-07-27T23:43:38.149Z,58.64
2022-07-27T23:46:07.257Z,58.70
2022-07-27T23:48:34.558Z,58.89
2022-07-27T23:51:01.688Z,58.96
2022-07-27T23:53:28.831Z,59.08
2022-07-27T23:55:55.955Z,59.09
2022-07-27T23:58:23.077Z,59.22
